sensor_id;sensor_type;location;lat;lon;timestamp;temperature;humidity
4739;DHT22;2383;48.632;10.156;2023-04-07T00:01:02;7.00;73.20
4739;DHT22;2383;48.632;10.156;2023-04-07T00:05:04;7.00;73.80
4739;DHT22;2383;48.632;10.156;2023-04-07T00:09:06;6.60;74.40
4739;DHT22;2383;48.632;10.156;2023-04-07T00:13:08;6.30;77.10
4739;DHT22;2383;48.632;10.156;2023-04-07T00:17:10;6.20;79.30
4739;DHT22;2383;48.632;10.156;2023-04-07T00:21:12;5.80;81.20
4739;DHT22;2383;48.632;10.156;2023-04-07T00:25:14;5.80;83.00
4739;DHT22;2383;48.632;10.156;2023-04-07T00:29:16;6.00;84.50
4739;DHT22;2383;48.632;10.156;2023-04-07T00:33:18;5.50;86.60
4739;DHT22;2383;48.632;10.156;2023-04-07T00:37:20;5.90;87.40
4739;DHT22;2383;48.632;10.156;2023-04-07T00:41:22;6.10;87.20
4739;DHT22;2383;48.632;10.156;2023-04-07T00:45:24;6.20;86.90
4739;DHT22;2383;48.632;10.156;2023-04-07T00:49:26;6.60;89.00
4739;DHT22;2383;48.632;10.156;2023-04-07T00:53:32;6.20;89.50
4739;DHT22;2383;48.632;10.156;2023-04-07T00:57:34;6.00;90.20
4739;DHT22;2383;48.632;10.156;2023-04-07T01:01:50;6.10;90.20
4739;DHT22;2383;48.632;10.156;2023-04-07T01:05:59;6.10;90.70
4739;DHT22;2383;48.632;10.156;2023-04-07T01:10:05;6.00;91.50
4739;DHT22;2383;48.632;10.156;2023-04-07T01:14:18;6.10;91.20
4739;DHT22;2383;48.632;10.156;2023-04-07T01:18:30;6.20;91.20
4739;DHT22;2383;48.632;10.156;2023-04-07T01:22:40;6.30;91.20
4739;DHT22;2383;48.632;10.156;2023-04-07T01:26:45;6.10;91.80
4739;DHT22;2383;48.632;10.156;2023-04-07T01:30:48;6.10;91.50
4739;DHT22;2383;48.632;10.156;2023-04-07T01:34:51;5.70;92.00
4739;DHT22;2383;48.632;10.156;2023-04-07T01:38:54;5.90;92.20
4739;DHT22;2383;48.632;10.156;2023-04-07T01:42:57;6.00;92.10
4739;DHT22;2383;48.632;10.156;2023-04-07T01:47:00;5.90;92.30
4739;DHT22;2383;48.632;10.156;2023-04-07T01:51:04;5.80;92.60
4739;DHT22;2383;48.632;10.156;2023-04-07T01:55:07;5.90;92.90
4739;DHT22;2383;48.632;10.156;2023-04-07T01:59:16;6.00;92.70
4739;DHT22;2383;48.632;10.156;2023-04-07T02:03:25;6.10;92.70
4739;DHT22;2383;48.632;10.156;2023-04-07T02:07:35;6.10;93.20
4739;DHT22;2383;48.632;10.156;2023-04-07T02:11:41;6.00;93.20
4739;DHT22;2383;48.632;10.156;2023-04-07T02:15:45;5.90;93.60
4739;DHT22;2383;48.632;10.156;2023-04-07T02:19:52;6.00;93.40
4739;DHT22;2383;48.632;10.156;2023-04-07T02:23:55;6.00;93.50
4739;DHT22;2383;48.632;10.156;2023-04-07T02:27:59;5.90;93.60
4739;DHT22;2383;48.632;10.156;2023-04-07T02:32:01;5.60;94.00
4739;DHT22;2383;48.632;10.156;2023-04-07T02:36:04;5.50;94.20
4739;DHT22;2383;48.632;10.156;2023-04-07T02:40:07;5.60;94.30
4739;DHT22;2383;48.632;10.156;2023-04-07T02:44:09;5.70;94.20
4739;DHT22;2383;48.632;10.156;2023-04-07T02:48:11;5.40;94.50
4739;DHT22;2383;48.632;10.156;2023-04-07T02:52:13;5.50;94.70
4739;DHT22;2383;48.632;10.156;2023-04-07T02:56:15;5.50;94.90
4739;DHT22;2383;48.632;10.156;2023-04-07T03:00:18;5.10;95.40
4739;DHT22;2383;48.632;10.156;2023-04-07T03:04:38;4.90;95.70
4739;DHT22;2383;48.632;10.156;2023-04-07T03:08:41;4.90;96.00
4739;DHT22;2383;48.632;10.156;2023-04-07T03:12:43;4.70;96.60
4739;DHT22;2383;48.632;10.156;2023-04-07T03:16:45;5.00;96.60
4739;DHT22;2383;48.632;10.156;2023-04-07T03:20:48;5.20;96.30
4739;DHT22;2383;48.632;10.156;2023-04-07T03:24:51;5.40;96.00
4739;DHT22;2383;48.632;10.156;2023-04-07T03:28:56;5.40;96.10
4739;DHT22;2383;48.632;10.156;2023-04-07T03:32:59;5.50;96.00
4739;DHT22;2383;48.632;10.156;2023-04-07T03:37:02;5.50;95.90
4739;DHT22;2383;48.632;10.156;2023-04-07T03:41:07;5.20;96.20
4739;DHT22;2383;48.632;10.156;2023-04-07T03:45:09;5.50;96.20
4739;DHT22;2383;48.632;10.156;2023-04-07T03:49:16;5.60;96.00
4739;DHT22;2383;48.632;10.156;2023-04-07T03:53:18;5.50;96.10
4739;DHT22;2383;48.632;10.156;2023-04-07T03:57:20;5.30;96.40
4739;DHT22;2383;48.632;10.156;2023-04-07T04:01:23;5.40;96.50
4739;DHT22;2383;48.632;10.156;2023-04-07T04:05:27;5.60;96.30
4739;DHT22;2383;48.632;10.156;2023-04-07T04:09:29;5.50;96.30
4739;DHT22;2383;48.632;10.156;2023-04-07T04:13:33;5.20;96.60
4739;DHT22;2383;48.632;10.156;2023-04-07T04:17:38;5.10;97.10
4739;DHT22;2383;48.632;10.156;2023-04-07T04:21:41;5.20;97.00
4739;DHT22;2383;48.632;10.156;2023-04-07T04:25:44;5.20;97.00
4739;DHT22;2383;48.632;10.156;2023-04-07T04:29:47;5.10;97.20
4739;DHT22;2383;48.632;10.156;2023-04-07T04:33:52;5.20;97.10
4739;DHT22;2383;48.632;10.156;2023-04-07T04:37:57;5.30;97.20
4739;DHT22;2383;48.632;10.156;2023-04-07T04:42:00;5.10;97.10
4739;DHT22;2383;48.632;10.156;2023-04-07T04:46:08;5.30;97.30
4739;DHT22;2383;48.632;10.156;2023-04-07T04:50:15;5.60;97.10
4739;DHT22;2383;48.632;10.156;2023-04-07T04:54:20;5.80;96.80
4739;DHT22;2383;48.632;10.156;2023-04-07T04:58:22;5.70;96.70
4739;DHT22;2383;48.632;10.156;2023-04-07T05:02:28;5.70;96.90
4739;DHT22;2383;48.632;10.156;2023-04-07T05:06:31;5.60;96.80
4739;DHT22;2383;48.632;10.156;2023-04-07T05:10:39;5.50;96.90
4739;DHT22;2383;48.632;10.156;2023-04-07T05:14:47;5.40;97.20
4739;DHT22;2383;48.632;10.156;2023-04-07T05:18:49;5.30;97.10
4739;DHT22;2383;48.632;10.156;2023-04-07T05:22:52;5.30;97.30
4739;DHT22;2383;48.632;10.156;2023-04-07T05:26:58;5.50;97.30
4739;DHT22;2383;48.632;10.156;2023-04-07T05:31:00;5.80;97.00
4739;DHT22;2383;48.632;10.156;2023-04-07T05:35:06;5.40;97.10
4739;DHT22;2383;48.632;10.156;2023-04-07T05:39:11;4.90;97.50
4739;DHT22;2383;48.632;10.156;2023-04-07T05:43:13;5.30;97.60
4739;DHT22;2383;48.632;10.156;2023-04-07T05:47:16;5.70;97.20
4739;DHT22;2383;48.632;10.156;2023-04-07T05:51:19;6.00;97.00
4739;DHT22;2383;48.632;10.156;2023-04-07T05:55:22;6.00;96.70
4739;DHT22;2383;48.632;10.156;2023-04-07T05:59:25;6.10;96.60
4739;DHT22;2383;48.632;10.156;2023-04-07T06:03:27;5.90;96.80
4739;DHT22;2383;48.632;10.156;2023-04-07T06:07:41;6.00;96.90
4739;DHT22;2383;48.632;10.156;2023-04-07T06:11:44;5.80;96.90
4739;DHT22;2383;48.632;10.156;2023-04-07T06:15:49;5.30;97.50
4739;DHT22;2383;48.632;10.156;2023-04-07T06:19:51;5.10;98.10
4739;DHT22;2383;48.632;10.156;2023-04-07T06:23:53;5.30;98.00
4739;DHT22;2383;48.632;10.156;2023-04-07T06:27:56;5.50;97.90
4739;DHT22;2383;48.632;10.156;2023-04-07T06:31:58;5.60;97.60
4739;DHT22;2383;48.632;10.156;2023-04-07T06:36:00;5.60;97.40
4739;DHT22;2383;48.632;10.156;2023-04-07T06:40:03;5.80;97.10
4739;DHT22;2383;48.632;10.156;2023-04-07T06:44:05;6.00;97.10
4739;DHT22;2383;48.632;10.156;2023-04-07T06:48:10;6.00;97.00
4739;DHT22;2383;48.632;10.156;2023-04-07T06:52:12;6.00;97.10
4739;DHT22;2383;48.632;10.156;2023-04-07T06:56:14;5.60;97.30
4739;DHT22;2383;48.632;10.156;2023-04-07T07:00:17;5.70;97.30
4739;DHT22;2383;48.632;10.156;2023-04-07T07:04:19;6.00;97.40
4739;DHT22;2383;48.632;10.156;2023-04-07T07:08:22;5.80;97.30
4739;DHT22;2383;48.632;10.156;2023-04-07T07:12:24;5.50;97.70
4739;DHT22;2383;48.632;10.156;2023-04-07T07:16:26;5.30;98.30
4739;DHT22;2383;48.632;10.156;2023-04-07T07:20:29;5.70;98.30
4739;DHT22;2383;48.632;10.156;2023-04-07T07:24:31;6.00;97.80
4739;DHT22;2383;48.632;10.156;2023-04-07T07:28:34;5.70;98.10
4739;DHT22;2383;48.632;10.156;2023-04-07T07:32:37;6.20;97.40
4739;DHT22;2383;48.632;10.156;2023-04-07T07:36:39;6.40;97.10
4739;DHT22;2383;48.632;10.156;2023-04-07T07:40:42;6.10;97.40
4739;DHT22;2383;48.632;10.156;2023-04-07T07:44:44;6.00;97.60
4739;DHT22;2383;48.632;10.156;2023-04-07T07:48:47;6.40;97.30
4739;DHT22;2383;48.632;10.156;2023-04-07T07:52:49;6.60;97.20
4739;DHT22;2383;48.632;10.156;2023-04-07T07:56:51;7.00;96.50
4739;DHT22;2383;48.632;10.156;2023-04-07T08:00:53;6.90;96.70
4739;DHT22;2383;48.632;10.156;2023-04-07T08:04:59;6.60;97.30
4739;DHT22;2383;48.632;10.156;2023-04-07T08:09:01;6.50;97.30
4739;DHT22;2383;48.632;10.156;2023-04-07T08:13:04;6.40;97.50
4739;DHT22;2383;48.632;10.156;2023-04-07T08:17:06;6.40;97.40
4739;DHT22;2383;48.632;10.156;2023-04-07T08:21:08;6.80;97.20
4739;DHT22;2383;48.632;10.156;2023-04-07T08:25:10;6.60;96.40
4739;DHT22;2383;48.632;10.156;2023-04-07T08:29:13;6.00;97.10
4739;DHT22;2383;48.632;10.156;2023-04-07T08:33:15;6.30;96.60
4739;DHT22;2383;48.632;10.156;2023-04-07T08:37:17;6.00;97.70
4739;DHT22;2383;48.632;10.156;2023-04-07T08:41:26;6.50;97.00
4739;DHT22;2383;48.632;10.156;2023-04-07T08:45:30;6.50;96.40
4739;DHT22;2383;48.632;10.156;2023-04-07T08:49:35;6.20;96.80
4739;DHT22;2383;48.632;10.156;2023-04-07T08:53:42;6.80;96.50
4739;DHT22;2383;48.632;10.156;2023-04-07T08:57:51;7.00;96.10
4739;DHT22;2383;48.632;10.156;2023-04-07T09:01:54;7.20;97.30
4739;DHT22;2383;48.632;10.156;2023-04-07T09:06:01;7.00;97.60
4739;DHT22;2383;48.632;10.156;2023-04-07T09:10:04;7.20;97.40
4739;DHT22;2383;48.632;10.156;2023-04-07T09:14:06;7.10;97.60
4739;DHT22;2383;48.632;10.156;2023-04-07T09:18:08;7.70;96.70
4739;DHT22;2383;48.632;10.156;2023-04-07T09:22:10;7.60;96.70
4739;DHT22;2383;48.632;10.156;2023-04-07T09:30:24;7.50;96.90
4739;DHT22;2383;48.632;10.156;2023-04-07T09:34:32;7.40;96.90
4739;DHT22;2383;48.632;10.156;2023-04-07T09:38:35;8.00;96.90
4739;DHT22;2383;48.632;10.156;2023-04-07T09:42:45;8.10;96.80
4739;DHT22;2383;48.632;10.156;2023-04-07T09:46:55;8.20;96.70
4739;DHT22;2383;48.632;10.156;2023-04-07T09:51:05;8.40;96.00
4739;DHT22;2383;48.632;10.156;2023-04-07T09:55:08;8.10;96.00
4739;DHT22;2383;48.632;10.156;2023-04-07T09:59:10;7.90;96.20
4739;DHT22;2383;48.632;10.156;2023-04-07T10:03:13;7.50;96.50
4739;DHT22;2383;48.632;10.156;2023-04-07T10:07:16;7.40;96.70
4739;DHT22;2383;48.632;10.156;2023-04-07T10:11:18;6.90;97.50
4739;DHT22;2383;48.632;10.156;2023-04-07T10:15:22;7.30;96.90
4739;DHT22;2383;48.632;10.156;2023-04-07T10:19:24;6.70;96.60
4739;DHT22;2383;48.632;10.156;2023-04-07T10:27:48;7.10;97.10
4739;DHT22;2383;48.632;10.156;2023-04-07T10:31:53;8.20;96.20
4739;DHT22;2383;48.632;10.156;2023-04-07T10:36:03;7.10;95.50
4739;DHT22;2383;48.632;10.156;2023-04-07T10:49:08;8.00;95.50
4739;DHT22;2383;48.632;10.156;2023-04-07T10:53:12;7.50;95.80
4739;DHT22;2383;48.632;10.156;2023-04-07T10:57:15;8.60;95.00
4739;DHT22;2383;48.632;10.156;2023-04-07T11:01:18;8.10;94.50
4739;DHT22;2383;48.632;10.156;2023-04-07T11:05:21;8.90;93.90
4739;DHT22;2383;48.632;10.156;2023-04-07T11:09:24;8.00;93.70
4739;DHT22;2383;48.632;10.156;2023-04-07T11:13:27;8.30;94.50
4739;DHT22;2383;48.632;10.156;2023-04-07T11:17:29;8.00;94.20
4739;DHT22;2383;48.632;10.156;2023-04-07T11:21:31;8.40;93.90
4739;DHT22;2383;48.632;10.156;2023-04-07T11:25:33;7.70;94.40
4739;DHT22;2383;48.632;10.156;2023-04-07T11:29:36;7.80;94.40
4739;DHT22;2383;48.632;10.156;2023-04-07T11:33:39;7.40;95.00
4739;DHT22;2383;48.632;10.156;2023-04-07T11:37:41;8.00;94.10
4739;DHT22;2383;48.632;10.156;2023-04-07T11:41:45;8.10;93.80
4739;DHT22;2383;48.632;10.156;2023-04-07T11:46:14;7.50;94.70
4739;DHT22;2383;48.632;10.156;2023-04-07T11:50:37;8.10;94.20
4739;DHT22;2383;48.632;10.156;2023-04-07T11:54:46;8.40;93.30
4739;DHT22;2383;48.632;10.156;2023-04-07T11:58:52;8.50;93.50
4739;DHT22;2383;48.632;10.156;2023-04-07T12:02:54;7.60;94.00
4739;DHT22;2383;48.632;10.156;2023-04-07T12:07:08;7.40;94.50
4739;DHT22;2383;48.632;10.156;2023-04-07T12:11:10;8.60;93.20
4739;DHT22;2383;48.632;10.156;2023-04-07T12:15:13;8.00;93.70
4739;DHT22;2383;48.632;10.156;2023-04-07T12:19:15;8.50;93.40
4739;DHT22;2383;48.632;10.156;2023-04-07T12:23:18;8.60;94.20
4739;DHT22;2383;48.632;10.156;2023-04-07T12:27:20;9.30;92.20
4739;DHT22;2383;48.632;10.156;2023-04-07T12:31:40;8.30;93.40
4739;DHT22;2383;48.632;10.156;2023-04-07T12:35:43;8.00;93.10
4739;DHT22;2383;48.632;10.156;2023-04-07T12:39:45;7.70;93.50
4739;DHT22;2383;48.632;10.156;2023-04-07T12:43:47;7.40;93.50
4739;DHT22;2383;48.632;10.156;2023-04-07T12:47:50;7.90;93.40
4739;DHT22;2383;48.632;10.156;2023-04-07T12:51:52;7.60;93.00
4739;DHT22;2383;48.632;10.156;2023-04-07T12:55:55;7.60;93.60
4739;DHT22;2383;48.632;10.156;2023-04-07T12:59:57;8.40;92.20
4739;DHT22;2383;48.632;10.156;2023-04-07T13:04:00;8.00;92.90
4739;DHT22;2383;48.632;10.156;2023-04-07T13:08:03;8.20;92.10
4739;DHT22;2383;48.632;10.156;2023-04-07T13:12:05;8.40;91.10
4739;DHT22;2383;48.632;10.156;2023-04-07T13:16:08;8.50;90.70
4739;DHT22;2383;48.632;10.156;2023-04-07T13:20:10;8.80;90.80
4739;DHT22;2383;48.632;10.156;2023-04-07T13:24:12;9.30;88.40
4739;DHT22;2383;48.632;10.156;2023-04-07T13:28:14;9.70;88.40
4739;DHT22;2383;48.632;10.156;2023-04-07T13:32:19;8.70;90.40
4739;DHT22;2383;48.632;10.156;2023-04-07T13:36:21;9.50;89.30
4739;DHT22;2383;48.632;10.156;2023-04-07T13:40:24;9.10;88.90
4739;DHT22;2383;48.632;10.156;2023-04-07T13:44:27;8.50;89.60
4739;DHT22;2383;48.632;10.156;2023-04-07T13:48:29;9.80;87.20
4739;DHT22;2383;48.632;10.156;2023-04-07T13:52:31;9.70;87.70
4739;DHT22;2383;48.632;10.156;2023-04-07T13:56:36;9.50;89.40
4739;DHT22;2383;48.632;10.156;2023-04-07T14:00:39;9.60;89.00
4739;DHT22;2383;48.632;10.156;2023-04-07T14:04:41;9.50;86.50
4739;DHT22;2383;48.632;10.156;2023-04-07T14:08:43;9.50;86.90
4739;DHT22;2383;48.632;10.156;2023-04-07T14:12:46;8.60;89.30
4739;DHT22;2383;48.632;10.156;2023-04-07T14:16:49;9.40;87.00
4739;DHT22;2383;48.632;10.156;2023-04-07T14:20:54;9.00;87.20
4739;DHT22;2383;48.632;10.156;2023-04-07T14:24:56;9.30;88.10
4739;DHT22;2383;48.632;10.156;2023-04-07T14:28:58;9.90;89.10
4739;DHT22;2383;48.632;10.156;2023-04-07T14:33:00;10.00;89.30
4739;DHT22;2383;48.632;10.156;2023-04-07T14:37:06;9.00;89.30
4739;DHT22;2383;48.632;10.156;2023-04-07T14:41:08;10.00;88.60
4739;DHT22;2383;48.632;10.156;2023-04-07T14:45:11;10.20;88.00
4739;DHT22;2383;48.632;10.156;2023-04-07T14:49:14;9.40;88.00
4739;DHT22;2383;48.632;10.156;2023-04-07T14:53:16;9.40;88.00
4739;DHT22;2383;48.632;10.156;2023-04-07T14:57:18;9.80;88.80
4739;DHT22;2383;48.632;10.156;2023-04-07T15:01:20;10.10;88.60
4739;DHT22;2383;48.632;10.156;2023-04-07T15:05:22;9.40;88.80
4739;DHT22;2383;48.632;10.156;2023-04-07T15:09:26;9.60;88.50
4739;DHT22;2383;48.632;10.156;2023-04-07T15:13:29;10.10;88.40
4739;DHT22;2383;48.632;10.156;2023-04-07T15:17:31;10.60;87.50
4739;DHT22;2383;48.632;10.156;2023-04-07T15:21:44;9.20;89.10
4739;DHT22;2383;48.632;10.156;2023-04-07T15:25:46;8.70;90.40
4739;DHT22;2383;48.632;10.156;2023-04-07T15:29:52;8.30;90.30
4739;DHT22;2383;48.632;10.156;2023-04-07T15:33:54;8.50;90.10
4739;DHT22;2383;48.632;10.156;2023-04-07T15:37:56;9.00;89.90
4739;DHT22;2383;48.632;10.156;2023-04-07T15:41:58;7.70;90.20
4739;DHT22;2383;48.632;10.156;2023-04-07T15:46:00;7.60;91.40
4739;DHT22;2383;48.632;10.156;2023-04-07T15:50:02;8.70;91.10
4739;DHT22;2383;48.632;10.156;2023-04-07T15:54:05;9.20;90.60
4739;DHT22;2383;48.632;10.156;2023-04-07T15:58:07;9.40;90.40
4739;DHT22;2383;48.632;10.156;2023-04-07T16:02:09;9.50;90.60
4739;DHT22;2383;48.632;10.156;2023-04-07T16:06:14;9.20;90.80
4739;DHT22;2383;48.632;10.156;2023-04-07T16:10:17;9.90;90.60
4739;DHT22;2383;48.632;10.156;2023-04-07T16:14:20;9.60;90.20
4739;DHT22;2383;48.632;10.156;2023-04-07T16:18:22;9.30;90.60
4739;DHT22;2383;48.632;10.156;2023-04-07T16:22:25;8.20;90.90
4739;DHT22;2383;48.632;10.156;2023-04-07T16:26:28;9.10;90.80
4739;DHT22;2383;48.632;10.156;2023-04-07T16:30:30;8.10;90.80
4739;DHT22;2383;48.632;10.156;2023-04-07T16:34:32;8.00;91.00
4739;DHT22;2383;48.632;10.156;2023-04-07T16:38:34;8.10;90.40
4739;DHT22;2383;48.632;10.156;2023-04-07T16:42:36;8.40;90.90
4739;DHT22;2383;48.632;10.156;2023-04-07T16:46:38;9.20;89.00
4739;DHT22;2383;48.632;10.156;2023-04-07T16:50:44;9.30;87.30
4739;DHT22;2383;48.632;10.156;2023-04-07T16:54:46;9.10;88.00
4739;DHT22;2383;48.632;10.156;2023-04-07T16:58:49;9.30;87.00
4739;DHT22;2383;48.632;10.156;2023-04-07T17:02:51;9.20;87.40
4739;DHT22;2383;48.632;10.156;2023-04-07T17:06:53;8.10;86.90
4739;DHT22;2383;48.632;10.156;2023-04-07T17:10:55;8.30;89.20
4739;DHT22;2383;48.632;10.156;2023-04-07T17:14:58;7.90;91.90
4739;DHT22;2383;48.632;10.156;2023-04-07T17:19:00;7.50;92.50
4739;DHT22;2383;48.632;10.156;2023-04-07T17:23:02;7.70;92.60
4739;DHT22;2383;48.632;10.156;2023-04-07T17:27:04;7.80;92.70
4739;DHT22;2383;48.632;10.156;2023-04-07T17:31:07;8.00;92.60
4739;DHT22;2383;48.632;10.156;2023-04-07T17:35:09;8.00;93.10
4739;DHT22;2383;48.632;10.156;2023-04-07T17:39:11;8.30;92.80
4739;DHT22;2383;48.632;10.156;2023-04-07T17:43:13;8.20;92.70
4739;DHT22;2383;48.632;10.156;2023-04-07T17:47:16;7.70;93.20
4739;DHT22;2383;48.632;10.156;2023-04-07T17:51:18;7.90;93.30
4739;DHT22;2383;48.632;10.156;2023-04-07T17:55:20;8.10;93.20
4739;DHT22;2383;48.632;10.156;2023-04-07T17:59:23;8.30;93.30
4739;DHT22;2383;48.632;10.156;2023-04-07T18:03:25;8.50;93.30
4739;DHT22;2383;48.632;10.156;2023-04-07T18:07:27;8.60;93.20
4739;DHT22;2383;48.632;10.156;2023-04-07T18:11:30;8.70;93.20
4739;DHT22;2383;48.632;10.156;2023-04-07T18:15:33;8.60;92.70
4739;DHT22;2383;48.632;10.156;2023-04-07T18:19:35;8.70;92.50
4739;DHT22;2383;48.632;10.156;2023-04-07T18:23:38;8.60;92.30
4739;DHT22;2383;48.632;10.156;2023-04-07T18:27:40;8.50;92.40
4739;DHT22;2383;48.632;10.156;2023-04-07T18:31:42;8.40;92.60
4739;DHT22;2383;48.632;10.156;2023-04-07T18:35:44;8.50;92.60
4739;DHT22;2383;48.632;10.156;2023-04-07T18:39:47;8.60;92.40
4739;DHT22;2383;48.632;10.156;2023-04-07T18:43:49;8.60;92.10
4739;DHT22;2383;48.632;10.156;2023-04-07T18:47:52;8.60;92.10
4739;DHT22;2383;48.632;10.156;2023-04-07T18:51:54;8.70;92.00
4739;DHT22;2383;48.632;10.156;2023-04-07T18:55:57;8.80;91.70
4739;DHT22;2383;48.632;10.156;2023-04-07T18:59:59;8.70;91.70
4739;DHT22;2383;48.632;10.156;2023-04-07T19:04:01;8.50;91.80
4739;DHT22;2383;48.632;10.156;2023-04-07T19:08:05;8.60;92.00
4739;DHT22;2383;48.632;10.156;2023-04-07T19:12:07;8.70;92.00
4739;DHT22;2383;48.632;10.156;2023-04-07T19:16:10;8.60;92.00
4739;DHT22;2383;48.632;10.156;2023-04-07T19:20:12;8.50;91.90
4739;DHT22;2383;48.632;10.156;2023-04-07T19:24:15;8.00;92.20
4739;DHT22;2383;48.632;10.156;2023-04-07T19:28:17;7.90;92.70
4739;DHT22;2383;48.632;10.156;2023-04-07T19:32:19;8.30;92.60
4739;DHT22;2383;48.632;10.156;2023-04-07T19:36:21;8.60;92.70
4739;DHT22;2383;48.632;10.156;2023-04-07T19:40:24;8.70;92.40
4739;DHT22;2383;48.632;10.156;2023-04-07T19:44:26;8.60;92.60
4739;DHT22;2383;48.632;10.156;2023-04-07T19:48:28;8.70;93.00
4739;DHT22;2383;48.632;10.156;2023-04-07T19:52:31;8.70;92.90
4739;DHT22;2383;48.632;10.156;2023-04-07T19:56:33;8.70;93.00
4739;DHT22;2383;48.632;10.156;2023-04-07T20:00:37;8.70;93.10
4739;DHT22;2383;48.632;10.156;2023-04-07T20:04:39;8.70;92.80
4739;DHT22;2383;48.632;10.156;2023-04-07T20:08:42;8.80;93.10
4739;DHT22;2383;48.632;10.156;2023-04-07T20:12:45;8.50;93.00
4739;DHT22;2383;48.632;10.156;2023-04-07T20:16:47;8.50;93.10
4739;DHT22;2383;48.632;10.156;2023-04-07T20:20:57;8.60;93.30
4739;DHT22;2383;48.632;10.156;2023-04-07T20:24:59;7.60;94.00
4739;DHT22;2383;48.632;10.156;2023-04-07T20:29:05;7.30;94.20
4739;DHT22;2383;48.632;10.156;2023-04-07T20:33:08;7.70;94.20
4739;DHT22;2383;48.632;10.156;2023-04-07T20:37:11;8.00;94.10
4739;DHT22;2383;48.632;10.156;2023-04-07T20:41:13;8.30;93.90
4739;DHT22;2383;48.632;10.156;2023-04-07T20:45:17;8.00;93.60
4739;DHT22;2383;48.632;10.156;2023-04-07T20:49:19;8.10;93.50
4739;DHT22;2383;48.632;10.156;2023-04-07T20:53:22;8.10;94.10
4739;DHT22;2383;48.632;10.156;2023-04-07T20:57:24;8.20;93.90
4739;DHT22;2383;48.632;10.156;2023-04-07T21:01:27;8.20;93.60
4739;DHT22;2383;48.632;10.156;2023-04-07T21:05:29;8.20;93.70
4739;DHT22;2383;48.632;10.156;2023-04-07T21:09:32;8.30;93.50
4739;DHT22;2383;48.632;10.156;2023-04-07T21:13:34;8.40;93.30
4739;DHT22;2383;48.632;10.156;2023-04-07T21:17:36;7.20;93.80
4739;DHT22;2383;48.632;10.156;2023-04-07T21:21:38;7.70;93.30
4739;DHT22;2383;48.632;10.156;2023-04-07T21:25:40;7.80;93.20
4739;DHT22;2383;48.632;10.156;2023-04-07T21:29:42;7.50;93.40
4739;DHT22;2383;48.632;10.156;2023-04-07T21:33:44;7.50;93.70
4739;DHT22;2383;48.632;10.156;2023-04-07T21:37:47;7.60;93.30
4739;DHT22;2383;48.632;10.156;2023-04-07T21:41:49;7.80;93.10
4739;DHT22;2383;48.632;10.156;2023-04-07T21:45:51;7.60;93.20
4739;DHT22;2383;48.632;10.156;2023-04-07T21:49:53;6.80;94.30
4739;DHT22;2383;48.632;10.156;2023-04-07T21:53:56;7.10;93.90
4739;DHT22;2383;48.632;10.156;2023-04-07T21:57:58;7.40;93.60
4739;DHT22;2383;48.632;10.156;2023-04-07T22:02:00;7.20;93.80
4739;DHT22;2383;48.632;10.156;2023-04-07T22:06:02;7.30;93.80
4739;DHT22;2383;48.632;10.156;2023-04-07T22:10:05;6.30;95.00
4739;DHT22;2383;48.632;10.156;2023-04-07T22:14:07;7.10;94.40
4739;DHT22;2383;48.632;10.156;2023-04-07T22:18:09;7.20;94.50
4739;DHT22;2383;48.632;10.156;2023-04-07T22:22:14;7.50;94.40
4739;DHT22;2383;48.632;10.156;2023-04-07T22:26:16;7.10;94.90
4739;DHT22;2383;48.632;10.156;2023-04-07T22:30:19;6.80;95.60
4739;DHT22;2383;48.632;10.156;2023-04-07T22:34:21;6.20;96.90
4739;DHT22;2383;48.632;10.156;2023-04-07T22:38:23;5.30;98.60
4739;DHT22;2383;48.632;10.156;2023-04-07T22:42:25;5.70;99.10
4739;DHT22;2383;48.632;10.156;2023-04-07T22:46:27;6.20;98.40
4739;DHT22;2383;48.632;10.156;2023-04-07T22:50:29;6.60;97.70
4739;DHT22;2383;48.632;10.156;2023-04-07T22:54:31;6.40;98.00
4739;DHT22;2383;48.632;10.156;2023-04-07T22:58:34;6.60;97.80
4739;DHT22;2383;48.632;10.156;2023-04-07T23:02:36;6.70;97.50
4739;DHT22;2383;48.632;10.156;2023-04-07T23:06:38;6.70;98.00
4739;DHT22;2383;48.632;10.156;2023-04-07T23:10:44;6.90;97.70
4739;DHT22;2383;48.632;10.156;2023-04-07T23:14:46;6.90;97.50
4739;DHT22;2383;48.632;10.156;2023-04-07T23:18:48;7.00;97.40
4739;DHT22;2383;48.632;10.156;2023-04-07T23:22:51;6.30;98.40
4739;DHT22;2383;48.632;10.156;2023-04-07T23:26:53;6.60;98.10
4739;DHT22;2383;48.632;10.156;2023-04-07T23:30:55;6.90;97.80
4739;DHT22;2383;48.632;10.156;2023-04-07T23:34:57;6.40;98.20
4739;DHT22;2383;48.632;10.156;2023-04-07T23:38:59;6.80;98.00
4739;DHT22;2383;48.632;10.156;2023-04-07T23:43:02;6.60;98.00
4739;DHT22;2383;48.632;10.156;2023-04-07T23:47:04;6.30;98.70
4739;DHT22;2383;48.632;10.156;2023-04-07T23:51:06;6.50;98.20
4739;DHT22;2383;48.632;10.156;2023-04-07T23:55:09;6.40;98.40
4739;DHT22;2383;48.632;10.156;2023-04-07T23:59:12;6.40;98.40
